الصفحة الرئيسية
METAR-TAF:

METAR-TAF

مطار :

جبل طارق, جبل طارق

مطار جبل طارق

دائرة عرض: 36-09N, خط طول: 005-21W, ارتفاع: 5 متر

مراقبة الطقس الحالي

تاريخ ووقت الإصدار 55 دقيقة قبل الساعة 02:50UTC
ريح 10 عقدة من الشرق/الشمال الشرقي
درجة الحرارة 15°درجة مئوية
الرطوبة 77%
ضغط 1018 hPa
الرؤية 10 كم أو أكثر

METAR: LXGB 190250Z AUTO 07010KT 9999 // BKN110/// 15/11 Q1018

زمن: 04:45 (03:45 UTC)

توقعات

تاريخ ووقت الإصدار 11ساعات و 21 دقيقة قبل الساعة 16:24UTC
التوقعات صالحة من18 الساعة 18 UTC إلى 18 الساعة 22 UTC
ريح 18 عقدة من الشرق تتزايد حتى 28 عقدة
الرؤية 10 كم أو أكثر
غيوم قليلة على ارتفاع 1400 قدم
غيوم متفرقة على ارتفاع 4000 قدم
أصبح
من 18 الساعة 18 UTC إلى 18 الساعة 21 UTC
ريح 14 عقدة من الشرق
نظرية الاحتمالات 30% :
مؤقت
من 18 الساعة 18 UTC إلى 18 الساعة 22 UTC
غيوم متفرقة على ارتفاع 2200 قدم

TAF: LXGB 181624Z 1818/1822 10018G28KT 9999 FEW014 SCT040 BECMG 1818/1821 08014KT PROB30 TEMPO 1818/1822 SCT022

أرصاد الطقس والتوقعات من أكثر من 4000 مطار (تقارير الطقس للمطار METAR والتنبؤ بالطقس بالمطارTAF).

المحطات المتاحة هي النقط الصفراء والحمراء على الخريطة.

حرك المؤشر فوق النقطة لمعرفة اسم المحطة.

ثم انقر لمعرفة أرصاد وتوقعات الطقس.

لتغيير الخارطة: اضغط على الأزرار الخضراء مع رمز الصليب الأسود للتكبير. على الزر الأخضر مع شرطة للتصغير، أو على الأسهم الخضراء للخرائط المجاورة.


METAR-TAF: